sensor_id;sensor_type;location;lat;lon;timestamp;temperature;humidity
59660;DHT22;45534;52.690;6.268;2023-06-26T00:00:41;22.80;99.90
59660;DHT22;45534;52.690;6.268;2023-06-26T00:03:07;22.80;99.90
59660;DHT22;45534;52.690;6.268;2023-06-26T00:05:33;22.80;99.90
59660;DHT22;45534;52.690;6.268;2023-06-26T00:08:00;22.70;99.90
59660;DHT22;45534;52.690;6.268;2023-06-26T00:10:26;22.70;99.90
59660;DHT22;45534;52.690;6.268;2023-06-26T00:12:53;22.60;99.90
59660;DHT22;45534;52.690;6.268;2023-06-26T00:15:19;22.60;99.90
59660;DHT22;45534;52.690;6.268;2023-06-26T00:17:44;22.60;99.90
59660;DHT22;45534;52.690;6.268;2023-06-26T00:20:11;22.60;99.90
59660;DHT22;45534;52.690;6.268;2023-06-26T00:22:36;22.60;99.90
59660;DHT22;45534;52.690;6.268;2023-06-26T00:25:07;22.60;99.90
59660;DHT22;45534;52.690;6.268;2023-06-26T00:27:33;22.50;99.90
59660;DHT22;45534;52.690;6.268;2023-06-26T00:29:58;22.50;99.90
59660;DHT22;45534;52.690;6.268;2023-06-26T00:32:24;22.50;99.90
59660;DHT22;45534;52.690;6.268;2023-06-26T00:34:50;22.40;99.90
59660;DHT22;45534;52.690;6.268;2023-06-26T00:37:16;22.30;99.90
59660;DHT22;45534;52.690;6.268;2023-06-26T00:39:42;22.20;99.90
59660;DHT22;45534;52.690;6.268;2023-06-26T00:42:07;22.20;99.90
59660;DHT22;45534;52.690;6.268;2023-06-26T00:44:33;22.20;99.90
59660;DHT22;45534;52.690;6.268;2023-06-26T00:46:59;22.20;99.90
59660;DHT22;45534;52.690;6.268;2023-06-26T00:49:26;22.10;99.90
59660;DHT22;45534;52.690;6.268;2023-06-26T00:51:52;22.00;99.90
59660;DHT22;45534;52.690;6.268;2023-06-26T00:54:19;22.00;99.90
59660;DHT22;45534;52.690;6.268;2023-06-26T00:56:48;21.90;99.90
59660;DHT22;45534;52.690;6.268;2023-06-26T00:59:15;22.00;99.90
59660;DHT22;45534;52.690;6.268;2023-06-26T01:01:40;21.90;99.90
59660;DHT22;45534;52.690;6.268;2023-06-26T01:04:06;21.90;99.90
59660;DHT22;45534;52.690;6.268;2023-06-26T01:06:33;21.80;99.90
59660;DHT22;45534;52.690;6.268;2023-06-26T01:09:04;21.80;99.90
59660;DHT22;45534;52.690;6.268;2023-06-26T01:11:30;21.80;99.90
59660;DHT22;45534;52.690;6.268;2023-06-26T01:13:56;21.80;99.90
59660;DHT22;45534;52.690;6.268;2023-06-26T01:16:24;21.90;99.90
59660;DHT22;45534;52.690;6.268;2023-06-26T01:18:50;21.90;99.90
59660;DHT22;45534;52.690;6.268;2023-06-26T01:21:17;21.90;99.90
59660;DHT22;45534;52.690;6.268;2023-06-26T01:24:04;21.90;99.90
59660;DHT22;45534;52.690;6.268;2023-06-26T01:26:32;21.80;99.90
59660;DHT22;45534;52.690;6.268;2023-06-26T01:29:02;21.80;99.90
59660;DHT22;45534;52.690;6.268;2023-06-26T01:31:29;21.70;99.90
59660;DHT22;45534;52.690;6.268;2023-06-26T01:33:58;21.70;99.90
59660;DHT22;45534;52.690;6.268;2023-06-26T01:36:25;21.70;99.90
59660;DHT22;45534;52.690;6.268;2023-06-26T01:38:50;21.70;99.90
59660;DHT22;45534;52.690;6.268;2023-06-26T01:41:17;21.70;99.90
59660;DHT22;45534;52.690;6.268;2023-06-26T01:44:26;21.70;99.90
59660;DHT22;45534;52.690;6.268;2023-06-26T01:47:04;21.80;99.90
59660;DHT22;45534;52.690;6.268;2023-06-26T01:55:34;21.70;99.90
59660;DHT22;45534;52.690;6.268;2023-06-26T01:58:02;21.80;99.90
59660;DHT22;45534;52.690;6.268;2023-06-26T02:00:29;21.80;99.90
59660;DHT22;45534;52.690;6.268;2023-06-26T02:02:54;21.90;99.90
59660;DHT22;45534;52.690;6.268;2023-06-26T02:05:22;21.80;99.90
59660;DHT22;45534;52.690;6.268;2023-06-26T02:07:49;21.80;99.90
59660;DHT22;45534;52.690;6.268;2023-06-26T02:10:15;21.70;99.90
59660;DHT22;45534;52.690;6.268;2023-06-26T02:12:41;21.70;99.90
59660;DHT22;45534;52.690;6.268;2023-06-26T02:15:07;21.70;99.90
59660;DHT22;45534;52.690;6.268;2023-06-26T02:17:33;21.80;99.90
59660;DHT22;45534;52.690;6.268;2023-06-26T02:19:58;21.80;99.90
59660;DHT22;45534;52.690;6.268;2023-06-26T02:22:24;21.80;99.90
59660;DHT22;45534;52.690;6.268;2023-06-26T02:24:50;21.80;99.90
59660;DHT22;45534;52.690;6.268;2023-06-26T02:27:15;21.70;99.90
59660;DHT22;45534;52.690;6.268;2023-06-26T02:29:41;21.70;99.90
59660;DHT22;45534;52.690;6.268;2023-06-26T02:32:07;21.70;99.90
59660;DHT22;45534;52.690;6.268;2023-06-26T02:34:34;21.70;99.90
59660;DHT22;45534;52.690;6.268;2023-06-26T02:37:00;21.70;99.90
59660;DHT22;45534;52.690;6.268;2023-06-26T02:39:26;21.70;99.90
59660;DHT22;45534;52.690;6.268;2023-06-26T02:41:52;21.60;99.90
59660;DHT22;45534;52.690;6.268;2023-06-26T02:44:18;21.60;99.90
59660;DHT22;45534;52.690;6.268;2023-06-26T02:46:44;21.70;99.90
59660;DHT22;45534;52.690;6.268;2023-06-26T02:49:09;21.70;99.90
59660;DHT22;45534;52.690;6.268;2023-06-26T02:51:35;21.70;99.90
59660;DHT22;45534;52.690;6.268;2023-06-26T02:54:01;21.80;99.90
59660;DHT22;45534;52.690;6.268;2023-06-26T02:56:27;21.70;99.90
59660;DHT22;45534;52.690;6.268;2023-06-26T02:58:57;21.80;99.90
59660;DHT22;45534;52.690;6.268;2023-06-26T03:01:23;21.80;99.90
59660;DHT22;45534;52.690;6.268;2023-06-26T03:03:49;21.80;99.90
59660;DHT22;45534;52.690;6.268;2023-06-26T03:06:15;21.80;99.90
59660;DHT22;45534;52.690;6.268;2023-06-26T03:08:41;21.70;99.90
59660;DHT22;45534;52.690;6.268;2023-06-26T03:11:08;21.70;99.90
59660;DHT22;45534;52.690;6.268;2023-06-26T03:13:37;21.70;99.90
59660;DHT22;45534;52.690;6.268;2023-06-26T03:16:03;21.70;99.90
59660;DHT22;45534;52.690;6.268;2023-06-26T03:18:29;21.70;99.90
59660;DHT22;45534;52.690;6.268;2023-06-26T03:20:56;21.60;99.90
59660;DHT22;45534;52.690;6.268;2023-06-26T03:23:22;21.60;99.90
59660;DHT22;45534;52.690;6.268;2023-06-26T03:25:49;21.50;99.90
59660;DHT22;45534;52.690;6.268;2023-06-26T03:28:15;21.50;99.90
59660;DHT22;45534;52.690;6.268;2023-06-26T03:30:40;21.50;99.90
59660;DHT22;45534;52.690;6.268;2023-06-26T03:33:06;21.40;99.90
59660;DHT22;45534;52.690;6.268;2023-06-26T03:35:32;21.40;99.90
59660;DHT22;45534;52.690;6.268;2023-06-26T03:37:58;21.40;99.90
59660;DHT22;45534;52.690;6.268;2023-06-26T03:40:24;21.40;99.90
59660;DHT22;45534;52.690;6.268;2023-06-26T03:42:50;21.40;99.90
59660;DHT22;45534;52.690;6.268;2023-06-26T03:45:16;21.40;99.90
59660;DHT22;45534;52.690;6.268;2023-06-26T03:47:41;21.40;99.90
59660;DHT22;45534;52.690;6.268;2023-06-26T03:50:07;21.40;99.90
59660;DHT22;45534;52.690;6.268;2023-06-26T03:52:33;21.40;99.90
59660;DHT22;45534;52.690;6.268;2023-06-26T03:55:00;21.30;99.90
59660;DHT22;45534;52.690;6.268;2023-06-26T03:57:26;21.40;99.90
59660;DHT22;45534;52.690;6.268;2023-06-26T03:59:52;21.30;99.90
59660;DHT22;45534;52.690;6.268;2023-06-26T04:02:18;21.30;99.90
59660;DHT22;45534;52.690;6.268;2023-06-26T04:04:44;21.30;99.90
59660;DHT22;45534;52.690;6.268;2023-06-26T04:07:10;21.30;99.90
59660;DHT22;45534;52.690;6.268;2023-06-26T04:09:35;21.30;99.90
59660;DHT22;45534;52.690;6.268;2023-06-26T04:12:02;21.30;99.90
59660;DHT22;45534;52.690;6.268;2023-06-26T04:14:28;21.30;99.90
59660;DHT22;45534;52.690;6.268;2023-06-26T04:16:53;21.30;99.90
59660;DHT22;45534;52.690;6.268;2023-06-26T04:19:19;21.40;99.90
59660;DHT22;45534;52.690;6.268;2023-06-26T04:21:45;21.40;99.90
59660;DHT22;45534;52.690;6.268;2023-06-26T04:24:11;21.40;99.90
59660;DHT22;45534;52.690;6.268;2023-06-26T04:26:36;21.40;99.90
59660;DHT22;45534;52.690;6.268;2023-06-26T04:29:02;21.40;99.90
59660;DHT22;45534;52.690;6.268;2023-06-26T04:31:31;21.30;99.90
59660;DHT22;45534;52.690;6.268;2023-06-26T04:33:57;21.30;99.90
59660;DHT22;45534;52.690;6.268;2023-06-26T04:36:24;21.30;99.90
59660;DHT22;45534;52.690;6.268;2023-06-26T04:38:57;21.40;99.90
59660;DHT22;45534;52.690;6.268;2023-06-26T04:41:24;21.40;99.90
59660;DHT22;45534;52.690;6.268;2023-06-26T04:43:50;21.40;99.90
59660;DHT22;45534;52.690;6.268;2023-06-26T04:46:16;21.40;99.90
59660;DHT22;45534;52.690;6.268;2023-06-26T04:48:42;21.40;99.90
59660;DHT22;45534;52.690;6.268;2023-06-26T04:51:10;21.30;99.90
59660;DHT22;45534;52.690;6.268;2023-06-26T04:53:36;21.30;99.90
59660;DHT22;45534;52.690;6.268;2023-06-26T04:56:02;21.30;99.90
59660;DHT22;45534;52.690;6.268;2023-06-26T04:58:27;21.20;99.90
59660;DHT22;45534;52.690;6.268;2023-06-26T05:00:53;21.20;99.90
59660;DHT22;45534;52.690;6.268;2023-06-26T05:03:19;21.20;99.90
59660;DHT22;45534;52.690;6.268;2023-06-26T05:05:45;21.10;99.90
59660;DHT22;45534;52.690;6.268;2023-06-26T05:08:18;21.10;99.90
59660;DHT22;45534;52.690;6.268;2023-06-26T05:10:45;21.10;99.90
59660;DHT22;45534;52.690;6.268;2023-06-26T05:13:10;21.00;99.90
59660;DHT22;45534;52.690;6.268;2023-06-26T05:15:36;21.00;99.90
59660;DHT22;45534;52.690;6.268;2023-06-26T05:18:02;20.90;99.90
59660;DHT22;45534;52.690;6.268;2023-06-26T05:20:28;20.90;99.90
59660;DHT22;45534;52.690;6.268;2023-06-26T05:22:54;20.80;99.90
59660;DHT22;45534;52.690;6.268;2023-06-26T05:25:20;20.80;99.90
59660;DHT22;45534;52.690;6.268;2023-06-26T05:27:47;20.80;99.90
59660;DHT22;45534;52.690;6.268;2023-06-26T05:30:13;20.80;99.90
59660;DHT22;45534;52.690;6.268;2023-06-26T05:32:40;20.80;99.90
59660;DHT22;45534;52.690;6.268;2023-06-26T05:35:06;20.80;99.90
59660;DHT22;45534;52.690;6.268;2023-06-26T05:37:33;20.80;99.90
59660;DHT22;45534;52.690;6.268;2023-06-26T05:40:00;20.80;99.90
59660;DHT22;45534;52.690;6.268;2023-06-26T05:42:29;20.80;99.90
59660;DHT22;45534;52.690;6.268;2023-06-26T05:44:55;20.80;99.90
59660;DHT22;45534;52.690;6.268;2023-06-26T05:47:21;20.80;99.90
59660;DHT22;45534;52.690;6.268;2023-06-26T05:49:47;20.70;99.90
59660;DHT22;45534;52.690;6.268;2023-06-26T05:52:13;20.70;99.90
59660;DHT22;45534;52.690;6.268;2023-06-26T05:54:39;20.70;99.90
59660;DHT22;45534;52.690;6.268;2023-06-26T05:57:05;20.70;99.90
59660;DHT22;45534;52.690;6.268;2023-06-26T05:59:32;20.60;99.90
59660;DHT22;45534;52.690;6.268;2023-06-26T06:01:57;20.60;99.90
59660;DHT22;45534;52.690;6.268;2023-06-26T06:04:23;20.50;99.90
59660;DHT22;45534;52.690;6.268;2023-06-26T06:06:49;20.50;99.90
59660;DHT22;45534;52.690;6.268;2023-06-26T06:09:15;20.50;99.90
59660;DHT22;45534;52.690;6.268;2023-06-26T06:11:40;20.50;99.90
59660;DHT22;45534;52.690;6.268;2023-06-26T06:14:06;20.50;99.90
59660;DHT22;45534;52.690;6.268;2023-06-26T06:16:32;20.60;99.90
59660;DHT22;45534;52.690;6.268;2023-06-26T06:18:57;20.60;99.90
59660;DHT22;45534;52.690;6.268;2023-06-26T06:21:23;20.60;99.90
59660;DHT22;45534;52.690;6.268;2023-06-26T06:23:49;20.70;99.90
59660;DHT22;45534;52.690;6.268;2023-06-26T06:26:14;20.90;99.90
59660;DHT22;45534;52.690;6.268;2023-06-26T06:28:40;20.90;99.90
59660;DHT22;45534;52.690;6.268;2023-06-26T06:31:06;20.90;99.90
59660;DHT22;45534;52.690;6.268;2023-06-26T06:33:31;20.80;99.90
59660;DHT22;45534;52.690;6.268;2023-06-26T06:35:57;20.80;99.90
59660;DHT22;45534;52.690;6.268;2023-06-26T06:38:23;20.70;99.90
59660;DHT22;45534;52.690;6.268;2023-06-26T06:40:49;20.80;99.90
59660;DHT22;45534;52.690;6.268;2023-06-26T06:43:15;20.70;99.90
59660;DHT22;45534;52.690;6.268;2023-06-26T06:45:41;20.80;99.90
59660;DHT22;45534;52.690;6.268;2023-06-26T06:48:06;20.90;99.90
59660;DHT22;45534;52.690;6.268;2023-06-26T06:50:32;21.00;99.90
59660;DHT22;45534;52.690;6.268;2023-06-26T06:52:58;21.00;99.90
59660;DHT22;45534;52.690;6.268;2023-06-26T06:55:24;21.10;99.90
59660;DHT22;45534;52.690;6.268;2023-06-26T06:57:51;21.20;99.90
59660;DHT22;45534;52.690;6.268;2023-06-26T07:00:17;21.20;99.90
59660;DHT22;45534;52.690;6.268;2023-06-26T07:02:44;21.30;99.90
59660;DHT22;45534;52.690;6.268;2023-06-26T07:05:10;21.30;99.90
59660;DHT22;45534;52.690;6.268;2023-06-26T07:07:37;21.20;99.90
59660;DHT22;45534;52.690;6.268;2023-06-26T07:10:14;21.20;99.90
59660;DHT22;45534;52.690;6.268;2023-06-26T07:12:40;21.20;99.90
59660;DHT22;45534;52.690;6.268;2023-06-26T07:15:06;21.30;99.90
59660;DHT22;45534;52.690;6.268;2023-06-26T07:17:33;21.30;99.90
59660;DHT22;45534;52.690;6.268;2023-06-26T07:20:00;21.40;99.90
59660;DHT22;45534;52.690;6.268;2023-06-26T07:22:26;21.50;99.90
59660;DHT22;45534;52.690;6.268;2023-06-26T07:24:52;21.60;99.90
59660;DHT22;45534;52.690;6.268;2023-06-26T07:27:19;21.70;99.90
59660;DHT22;45534;52.690;6.268;2023-06-26T07:29:45;21.70;99.90
59660;DHT22;45534;52.690;6.268;2023-06-26T07:32:11;21.70;99.90
59660;DHT22;45534;52.690;6.268;2023-06-26T07:34:37;21.80;99.90
59660;DHT22;45534;52.690;6.268;2023-06-26T07:37:03;21.90;99.90
59660;DHT22;45534;52.690;6.268;2023-06-26T07:39:29;22.00;99.90
59660;DHT22;45534;52.690;6.268;2023-06-26T07:41:55;22.00;99.90
59660;DHT22;45534;52.690;6.268;2023-06-26T07:44:21;21.90;99.90
59660;DHT22;45534;52.690;6.268;2023-06-26T07:46:47;21.70;99.90
59660;DHT22;45534;52.690;6.268;2023-06-26T07:49:13;21.70;99.90
59660;DHT22;45534;52.690;6.268;2023-06-26T07:51:39;21.60;99.90
59660;DHT22;45534;52.690;6.268;2023-06-26T07:54:04;21.60;99.90
59660;DHT22;45534;52.690;6.268;2023-06-26T07:56:30;21.60;99.90
59660;DHT22;45534;52.690;6.268;2023-06-26T07:58:56;21.60;99.90
59660;DHT22;45534;52.690;6.268;2023-06-26T08:01:24;21.60;99.90
59660;DHT22;45534;52.690;6.268;2023-06-26T08:03:49;21.60;99.90
59660;DHT22;45534;52.690;6.268;2023-06-26T08:06:15;21.70;99.90
59660;DHT22;45534;52.690;6.268;2023-06-26T08:08:41;21.70;99.90
59660;DHT22;45534;52.690;6.268;2023-06-26T08:11:07;21.70;99.90
59660;DHT22;45534;52.690;6.268;2023-06-26T08:13:33;21.80;99.90
59660;DHT22;45534;52.690;6.268;2023-06-26T08:15:58;21.80;99.90
59660;DHT22;45534;52.690;6.268;2023-06-26T08:18:24;21.80;99.90
59660;DHT22;45534;52.690;6.268;2023-06-26T08:20:52;21.80;99.90
59660;DHT22;45534;52.690;6.268;2023-06-26T08:23:18;21.90;99.90
59660;DHT22;45534;52.690;6.268;2023-06-26T08:25:44;22.00;99.90
59660;DHT22;45534;52.690;6.268;2023-06-26T08:28:09;22.10;99.90
59660;DHT22;45534;52.690;6.268;2023-06-26T08:30:35;22.30;99.90
59660;DHT22;45534;52.690;6.268;2023-06-26T08:33:01;22.50;99.90
59660;DHT22;45534;52.690;6.268;2023-06-26T08:35:26;22.40;99.90
59660;DHT22;45534;52.690;6.268;2023-06-26T08:37:52;22.40;99.90
59660;DHT22;45534;52.690;6.268;2023-06-26T08:40:21;22.10;99.90
59660;DHT22;45534;52.690;6.268;2023-06-26T08:42:47;22.00;99.90
59660;DHT22;45534;52.690;6.268;2023-06-26T08:45:12;22.10;99.90
59660;DHT22;45534;52.690;6.268;2023-06-26T08:47:39;22.20;99.90
59660;DHT22;45534;52.690;6.268;2023-06-26T08:50:13;22.20;99.90
59660;DHT22;45534;52.690;6.268;2023-06-26T08:52:48;22.10;99.90
59660;DHT22;45534;52.690;6.268;2023-06-26T08:55:16;22.00;99.90
59660;DHT22;45534;52.690;6.268;2023-06-26T08:57:43;21.90;99.90
59660;DHT22;45534;52.690;6.268;2023-06-26T09:00:10;21.80;99.90
59660;DHT22;45534;52.690;6.268;2023-06-26T09:02:36;22.00;99.90
59660;DHT22;45534;52.690;6.268;2023-06-26T09:05:03;22.20;99.90
59660;DHT22;45534;52.690;6.268;2023-06-26T09:07:29;22.20;99.90
59660;DHT22;45534;52.690;6.268;2023-06-26T09:09:55;22.10;99.90
59660;DHT22;45534;52.690;6.268;2023-06-26T09:12:21;22.00;99.90
59660;DHT22;45534;52.690;6.268;2023-06-26T09:14:47;21.80;99.90
59660;DHT22;45534;52.690;6.268;2023-06-26T09:17:13;21.80;99.90
59660;DHT22;45534;52.690;6.268;2023-06-26T09:19:39;21.80;99.90
59660;DHT22;45534;52.690;6.268;2023-06-26T09:22:11;21.90;99.90
59660;DHT22;45534;52.690;6.268;2023-06-26T09:24:37;22.20;99.90
59660;DHT22;45534;52.690;6.268;2023-06-26T09:27:04;22.40;99.90
59660;DHT22;45534;52.690;6.268;2023-06-26T09:29:30;22.40;99.90
59660;DHT22;45534;52.690;6.268;2023-06-26T09:31:56;22.40;99.90
59660;DHT22;45534;52.690;6.268;2023-06-26T09:34:32;22.50;99.90
59660;DHT22;45534;52.690;6.268;2023-06-26T09:36:58;22.70;99.90
59660;DHT22;45534;52.690;6.268;2023-06-26T09:39:24;22.70;99.90
59660;DHT22;45534;52.690;6.268;2023-06-26T09:41:50;22.50;99.90
59660;DHT22;45534;52.690;6.268;2023-06-26T09:44:16;22.30;99.90
59660;DHT22;45534;52.690;6.268;2023-06-26T09:46:45;22.40;99.90
59660;DHT22;45534;52.690;6.268;2023-06-26T09:49:11;22.70;99.90
59660;DHT22;45534;52.690;6.268;2023-06-26T09:51:39;23.00;99.90
59660;DHT22;45534;52.690;6.268;2023-06-26T09:54:06;23.30;99.90
59660;DHT22;45534;52.690;6.268;2023-06-26T09:56:33;23.30;99.90
59660;DHT22;45534;52.690;6.268;2023-06-26T09:59:01;23.20;99.90
59660;DHT22;45534;52.690;6.268;2023-06-26T10:01:27;23.20;99.90
59660;DHT22;45534;52.690;6.268;2023-06-26T10:03:54;23.10;99.90
59660;DHT22;45534;52.690;6.268;2023-06-26T10:06:45;23.20;99.90
59660;DHT22;45534;52.690;6.268;2023-06-26T10:09:13;23.40;99.90
59660;DHT22;45534;52.690;6.268;2023-06-26T10:11:55;23.60;99.90
59660;DHT22;45534;52.690;6.268;2023-06-26T10:14:25;23.60;98.80
59660;DHT22;45534;52.690;6.268;2023-06-26T10:16:51;23.50;98.90
59660;DHT22;45534;52.690;6.268;2023-06-26T10:19:19;23.40;99.60
59660;DHT22;45534;52.690;6.268;2023-06-26T10:21:54;23.60;99.90
59660;DHT22;45534;52.690;6.268;2023-06-26T10:24:22;23.60;99.00
59660;DHT22;45534;52.690;6.268;2023-06-26T10:26:52;23.20;99.90
59660;DHT22;45534;52.690;6.268;2023-06-26T10:29:20;23.10;99.90
59660;DHT22;45534;52.690;6.268;2023-06-26T10:31:52;23.10;99.10
59660;DHT22;45534;52.690;6.268;2023-06-26T10:34:19;23.10;99.80
59660;DHT22;45534;52.690;6.268;2023-06-26T10:36:45;23.30;99.90
59660;DHT22;45534;52.690;6.268;2023-06-26T10:39:13;23.50;99.40
59660;DHT22;45534;52.690;6.268;2023-06-26T10:41:40;23.50;99.80
59660;DHT22;45534;52.690;6.268;2023-06-26T10:44:16;23.60;98.90
59660;DHT22;45534;52.690;6.268;2023-06-26T10:46:53;23.60;98.50
59660;DHT22;45534;52.690;6.268;2023-06-26T10:49:20;23.40;97.50
59660;DHT22;45534;52.690;6.268;2023-06-26T10:51:50;23.30;98.50
59660;DHT22;45534;52.690;6.268;2023-06-26T10:54:19;23.40;98.30
59660;DHT22;45534;52.690;6.268;2023-06-26T10:56:51;23.50;99.50
59660;DHT22;45534;52.690;6.268;2023-06-26T10:59:25;23.50;99.40
59660;DHT22;45534;52.690;6.268;2023-06-26T11:01:58;23.40;99.90
59660;DHT22;45534;52.690;6.268;2023-06-26T11:04:46;23.40;99.90
59660;DHT22;45534;52.690;6.268;2023-06-26T11:07:25;23.70;98.60
59660;DHT22;45534;52.690;6.268;2023-06-26T11:12:37;24.00;96.90
59660;DHT22;45534;52.690;6.268;2023-06-26T11:15:08;24.30;97.50
59660;DHT22;45534;52.690;6.268;2023-06-26T11:17:35;24.30;95.60
59660;DHT22;45534;52.690;6.268;2023-06-26T11:20:01;24.30;95.40
59660;DHT22;45534;52.690;6.268;2023-06-26T11:22:26;24.60;93.80
59660;DHT22;45534;52.690;6.268;2023-06-26T11:24:53;24.70;92.70
59660;DHT22;45534;52.690;6.268;2023-06-26T11:27:42;24.70;92.90
59660;DHT22;45534;52.690;6.268;2023-06-26T11:30:10;24.40;92.50
59660;DHT22;45534;52.690;6.268;2023-06-26T11:32:39;24.10;94.50
59660;DHT22;45534;52.690;6.268;2023-06-26T11:35:05;23.90;91.80
59660;DHT22;45534;52.690;6.268;2023-06-26T11:37:32;23.60;93.30
59660;DHT22;45534;52.690;6.268;2023-06-26T11:39:58;23.60;94.20
59660;DHT22;45534;52.690;6.268;2023-06-26T11:42:24;23.80;94.00
59660;DHT22;45534;52.690;6.268;2023-06-26T11:44:51;24.10;93.50
59660;DHT22;45534;52.690;6.268;2023-06-26T11:47:19;24.50;93.00
59660;DHT22;45534;52.690;6.268;2023-06-26T11:49:46;24.70;92.00
59660;DHT22;45534;52.690;6.268;2023-06-26T11:52:13;24.70;90.70
59660;DHT22;45534;52.690;6.268;2023-06-26T11:54:40;24.80;91.80
59660;DHT22;45534;52.690;6.268;2023-06-26T11:57:06;25.20;90.70
59660;DHT22;45534;52.690;6.268;2023-06-26T11:59:41;24.90;88.60
59660;DHT22;45534;52.690;6.268;2023-06-26T12:02:14;24.80;87.90
59660;DHT22;45534;52.690;6.268;2023-06-26T12:04:47;24.80;88.10
59660;DHT22;45534;52.690;6.268;2023-06-26T12:07:19;24.60;86.60
59660;DHT22;45534;52.690;6.268;2023-06-26T12:09:48;24.60;89.30
59660;DHT22;45534;52.690;6.268;2023-06-26T12:12:18;24.40;89.20
59660;DHT22;45534;52.690;6.268;2023-06-26T12:14:44;24.10;90.00
59660;DHT22;45534;52.690;6.268;2023-06-26T12:17:12;23.80;90.00
59660;DHT22;45534;52.690;6.268;2023-06-26T12:19:45;24.00;91.80
59660;DHT22;45534;52.690;6.268;2023-06-26T12:22:16;24.10;92.30
59660;DHT22;45534;52.690;6.268;2023-06-26T12:24:43;24.40;91.50
59660;DHT22;45534;52.690;6.268;2023-06-26T12:27:11;24.40;89.80
59660;DHT22;45534;52.690;6.268;2023-06-26T12:29:39;24.10;84.60
59660;DHT22;45534;52.690;6.268;2023-06-26T12:32:08;23.90;90.00
59660;DHT22;45534;52.690;6.268;2023-06-26T12:34:36;23.80;90.30
59660;DHT22;45534;52.690;6.268;2023-06-26T12:37:10;23.40;91.00
59660;DHT22;45534;52.690;6.268;2023-06-26T12:39:50;23.40;91.70
59660;DHT22;45534;52.690;6.268;2023-06-26T12:42:27;23.30;90.80
59660;DHT22;45534;52.690;6.268;2023-06-26T12:44:54;23.50;90.60
59660;DHT22;45534;52.690;6.268;2023-06-26T12:47:27;23.60;90.70
59660;DHT22;45534;52.690;6.268;2023-06-26T12:49:54;23.80;90.50
59660;DHT22;45534;52.690;6.268;2023-06-26T12:52:20;24.00;90.50
59660;DHT22;45534;52.690;6.268;2023-06-26T12:54:49;24.20;87.90
59660;DHT22;45534;52.690;6.268;2023-06-26T12:57:16;24.10;88.50
59660;DHT22;45534;52.690;6.268;2023-06-26T12:59:42;24.10;86.90
59660;DHT22;45534;52.690;6.268;2023-06-26T13:02:09;24.10;86.40
59660;DHT22;45534;52.690;6.268;2023-06-26T13:04:36;24.30;85.40
59660;DHT22;45534;52.690;6.268;2023-06-26T13:07:05;24.30;82.90
59660;DHT22;45534;52.690;6.268;2023-06-26T13:09:33;24.00;84.40
59660;DHT22;45534;52.690;6.268;2023-06-26T13:11:59;24.10;82.50
59660;DHT22;45534;52.690;6.268;2023-06-26T13:14:25;24.40;83.50
59660;DHT22;45534;52.690;6.268;2023-06-26T13:16:51;24.40;84.70
59660;DHT22;45534;52.690;6.268;2023-06-26T13:19:17;24.50;84.10
59660;DHT22;45534;52.690;6.268;2023-06-26T13:21:42;24.70;82.00
59660;DHT22;45534;52.690;6.268;2023-06-26T13:24:08;24.50;81.90
59660;DHT22;45534;52.690;6.268;2023-06-26T13:26:34;23.90;87.20
59660;DHT22;45534;52.690;6.268;2023-06-26T13:29:00;23.50;90.10
59660;DHT22;45534;52.690;6.268;2023-06-26T13:31:26;23.50;91.80
59660;DHT22;45534;52.690;6.268;2023-06-26T13:33:52;23.40;92.30
59660;DHT22;45534;52.690;6.268;2023-06-26T13:36:18;23.30;93.50
59660;DHT22;45534;52.690;6.268;2023-06-26T13:38:44;23.40;93.20
59660;DHT22;45534;52.690;6.268;2023-06-26T13:41:10;23.30;92.50
59660;DHT22;45534;52.690;6.268;2023-06-26T13:43:36;23.50;92.00
59660;DHT22;45534;52.690;6.268;2023-06-26T13:46:03;23.40;90.30
59660;DHT22;45534;52.690;6.268;2023-06-26T13:48:29;23.40;91.00
59660;DHT22;45534;52.690;6.268;2023-06-26T13:50:55;23.60;90.80
59660;DHT22;45534;52.690;6.268;2023-06-26T13:53:21;23.70;91.70
59660;DHT22;45534;52.690;6.268;2023-06-26T13:55:48;23.70;90.00
59660;DHT22;45534;52.690;6.268;2023-06-26T13:58:13;23.40;91.00
59660;DHT22;45534;52.690;6.268;2023-06-26T14:00:40;23.10;92.20
59660;DHT22;45534;52.690;6.268;2023-06-26T14:03:06;23.20;92.20
59660;DHT22;45534;52.690;6.268;2023-06-26T14:05:36;23.40;90.90
59660;DHT22;45534;52.690;6.268;2023-06-26T14:08:04;23.80;88.40
59660;DHT22;45534;52.690;6.268;2023-06-26T14:10:30;24.10;87.70
59660;DHT22;45534;52.690;6.268;2023-06-26T14:12:56;24.20;87.60
59660;DHT22;45534;52.690;6.268;2023-06-26T14:15:21;24.20;88.80
59660;DHT22;45534;52.690;6.268;2023-06-26T14:17:47;24.20;89.30
59660;DHT22;45534;52.690;6.268;2023-06-26T14:20:13;23.60;87.80
59660;DHT22;45534;52.690;6.268;2023-06-26T14:22:40;23.00;88.70
59660;DHT22;45534;52.690;6.268;2023-06-26T14:25:07;22.80;88.50
59660;DHT22;45534;52.690;6.268;2023-06-26T14:27:33;22.80;89.50
59660;DHT22;45534;52.690;6.268;2023-06-26T14:29:58;22.80;89.90
59660;DHT22;45534;52.690;6.268;2023-06-26T14:32:24;22.90;89.10
59660;DHT22;45534;52.690;6.268;2023-06-26T14:34:50;23.10;89.00
59660;DHT22;45534;52.690;6.268;2023-06-26T14:37:15;23.40;83.70
59660;DHT22;45534;52.690;6.268;2023-06-26T14:39:43;23.50;83.80
59660;DHT22;45534;52.690;6.268;2023-06-26T14:42:09;23.60;83.30
59660;DHT22;45534;52.690;6.268;2023-06-26T14:44:35;23.90;84.50
59660;DHT22;45534;52.690;6.268;2023-06-26T14:47:00;24.10;82.90
59660;DHT22;45534;52.690;6.268;2023-06-26T14:49:27;24.40;82.10
59660;DHT22;45534;52.690;6.268;2023-06-26T14:51:52;24.50;79.10
59660;DHT22;45534;52.690;6.268;2023-06-26T14:54:18;24.50;78.20
59660;DHT22;45534;52.690;6.268;2023-06-26T14:56:44;24.40;77.70
59660;DHT22;45534;52.690;6.268;2023-06-26T14:59:11;24.30;78.00
59660;DHT22;45534;52.690;6.268;2023-06-26T15:01:38;24.30;77.00
59660;DHT22;45534;52.690;6.268;2023-06-26T15:04:07;24.10;77.30
59660;DHT22;45534;52.690;6.268;2023-06-26T15:06:34;24.00;77.10
59660;DHT22;45534;52.690;6.268;2023-06-26T15:08:59;24.00;77.60
59660;DHT22;45534;52.690;6.268;2023-06-26T15:11:26;24.20;77.40
59660;DHT22;45534;52.690;6.268;2023-06-26T15:13:52;24.30;77.10
59660;DHT22;45534;52.690;6.268;2023-06-26T15:16:17;24.00;76.90
59660;DHT22;45534;52.690;6.268;2023-06-26T15:18:44;23.40;78.50
59660;DHT22;45534;52.690;6.268;2023-06-26T15:21:09;22.90;79.40
59660;DHT22;45534;52.690;6.268;2023-06-26T15:23:35;22.70;80.90
59660;DHT22;45534;52.690;6.268;2023-06-26T15:26:01;22.60;82.00
59660;DHT22;45534;52.690;6.268;2023-06-26T15:28:38;22.70;82.90
59660;DHT22;45534;52.690;6.268;2023-06-26T15:31:04;23.00;83.90
59660;DHT22;45534;52.690;6.268;2023-06-26T15:33:32;23.20;81.40
59660;DHT22;45534;52.690;6.268;2023-06-26T15:35:58;23.40;79.20
59660;DHT22;45534;52.690;6.268;2023-06-26T15:38:30;23.50;80.80